createdAt,value
2023-04-18T00:00:07.778Z,22.63
2023-04-18T00:01:07.751Z,22.64
2023-04-18T00:02:07.811Z,22.66
2023-04-18T00:03:07.894Z,22.66
2023-04-18T00:04:07.925Z,22.67
2023-04-18T00:05:07.828Z,22.66
2023-04-18T00:06:07.741Z,22.66
2023-04-18T00:07:07.767Z,22.66
2023-04-18T00:08:07.728Z,22.64
2023-04-18T00:09:07.817Z,22.66
2023-04-18T00:10:07.709Z,22.64
2023-04-18T00:11:07.710Z,22.67
2023-04-18T00:12:07.703Z,22.66
2023-04-18T00:13:07.682Z,22.63
2023-04-18T00:14:07.662Z,22.66
2023-04-18T00:15:07.655Z,22.64
2023-04-18T00:16:07.649Z,22.66
2023-04-18T00:17:07.742Z,22.64
2023-04-18T00:18:07.703Z,22.64
2023-04-18T00:19:07.661Z,22.64
2023-04-18T00:20:07.667Z,22.64
2023-04-18T00:21:07.675Z,22.66
2023-04-18T00:22:07.692Z,22.66
2023-04-18T00:23:07.718Z,22.66
2023-04-18T00:24:07.746Z,22.66
2023-04-18T00:25:07.756Z,22.64
2023-04-18T00:26:07.753Z,22.64
2023-04-18T00:27:07.758Z,22.66
2023-04-18T00:28:07.816Z,22.66
2023-04-18T00:29:07.766Z,22.64
2023-04-18T00:30:07.761Z,22.64
2023-04-18T00:31:07.980Z,22.66
2023-04-18T00:32:07.759Z,22.67
2023-04-18T00:33:07.790Z,22.64
2023-04-18T00:34:07.832Z,22.66
2023-04-18T00:35:07.901Z,22.66
2023-04-18T00:36:07.791Z,22.67
2023-04-18T00:37:07.799Z,22.66
2023-04-18T00:38:07.801Z,22.64
2023-04-18T00:39:07.785Z,22.67
2023-04-18T00:40:07.807Z,22.67
2023-04-18T00:41:07.827Z,22.67
2023-04-18T00:42:07.811Z,22.66
2023-04-18T00:43:07.820Z,22.66
2023-04-18T00:44:07.807Z,22.69
2023-04-18T00:45:07.838Z,22.64
2023-04-18T00:46:07.892Z,22.66
2023-04-18T00:47:07.890Z,22.67
2023-04-18T00:48:07.957Z,22.64
2023-04-18T00:49:07.942Z,22.64
2023-04-18T00:50:07.945Z,22.66
2023-04-18T00:51:07.971Z,22.66
2023-04-18T00:52:07.984Z,22.67
2023-04-18T00:53:08.016Z,22.66
2023-04-18T00:54:08.009Z,22.66
2023-04-18T00:55:08.011Z,22.66
2023-04-18T00:56:08.000Z,22.64
2023-04-18T00:57:08.029Z,22.64
2023-04-18T00:58:08.869Z,22.67
2023-04-18T00:59:08.056Z,22.64
2023-04-18T01:00:08.058Z,22.63
2023-04-18T01:01:08.125Z,22.66
2023-04-18T01:02:08.179Z,22.64
2023-04-18T01:03:08.298Z,22.66
2023-04-18T01:04:08.196Z,22.67
2023-04-18T01:05:08.143Z,22.66
2023-04-18T01:06:08.136Z,22.67
2023-04-18T01:07:08.146Z,22.66
2023-04-18T01:08:08.220Z,22.66
2023-04-18T01:09:08.173Z,22.66
2023-04-18T01:10:08.165Z,22.64
2023-04-18T01:11:08.155Z,22.66
2023-04-18T01:12:08.161Z,22.64
2023-04-18T01:13:08.152Z,22.66
2023-04-18T01:14:08.166Z,22.64
2023-04-18T01:15:08.158Z,22.69
2023-04-18T01:16:08.196Z,22.66
2023-04-18T01:17:08.163Z,22.66
2023-04-18T01:18:08.191Z,22.64
2023-04-18T01:19:08.214Z,22.67
2023-04-18T01:20:08.245Z,22.67
2023-04-18T01:21:08.239Z,22.64
2023-04-18T01:22:08.243Z,22.66
2023-04-18T01:23:08.257Z,22.64
2023-04-18T01:24:08.259Z,22.64
2023-04-18T01:25:08.224Z,22.66
2023-04-18T01:26:08.220Z,22.66
2023-04-18T01:27:08.306Z,22.64
2023-04-18T01:28:08.207Z,22.63
2023-04-18T01:29:08.219Z,22.64
2023-04-18T01:30:08.234Z,22.66
2023-04-18T01:31:08.242Z,22.63
2023-04-18T01:32:08.206Z,22.66
2023-04-18T01:33:08.180Z,22.66
2023-04-18T01:34:08.195Z,22.66
2023-04-18T01:35:08.182Z,22.63
2023-04-18T01:36:08.150Z,22.64
2023-04-18T01:37:08.144Z,22.66
2023-04-18T01:38:08.155Z,22.64
2023-04-18T01:39:08.212Z,22.66
2023-04-18T01:40:08.171Z,22.66
2023-04-18T01:41:08.190Z,22.67
2023-04-18T01:42:08.205Z,22.66
2023-04-18T01:43:08.223Z,22.66
2023-04-18T01:44:08.248Z,22.64
2023-04-18T01:45:08.261Z,22.66
2023-04-18T01:46:08.315Z,22.64
2023-04-18T01:47:08.291Z,22.66
2023-04-18T01:48:08.296Z,22.66
2023-04-18T01:49:08.285Z,22.67
2023-04-18T01:50:08.300Z,22.64
2023-04-18T01:51:08.307Z,22.67
2023-04-18T01:52:08.321Z,22.67
2023-04-18T01:53:08.323Z,22.64
2023-04-18T01:54:08.342Z,22.66
2023-04-18T01:55:08.346Z,22.66
2023-04-18T01:56:08.362Z,22.66
2023-04-18T01:57:08.373Z,22.67
2023-04-18T01:58:08.398Z,22.64
2023-04-18T01:59:08.407Z,22.66
2023-04-18T02:00:08.427Z,22.64
2023-04-18T02:01:08.518Z,22.66
2023-04-18T02:02:08.571Z,22.67
2023-04-18T02:03:08.541Z,22.69
2023-04-18T02:04:08.513Z,22.66
2023-04-18T02:05:08.530Z,22.66
2023-04-18T02:06:08.465Z,22.66
2023-04-18T02:07:08.499Z,22.66
2023-04-18T02:08:08.500Z,22.66
2023-04-18T02:09:08.522Z,22.66
2023-04-18T02:10:08.522Z,22.64
2023-04-18T02:11:08.522Z,22.66
2023-04-18T02:12:08.572Z,22.66
2023-04-18T02:13:08.569Z,22.67
2023-04-18T02:14:08.578Z,22.66
2023-04-18T02:15:08.629Z,22.69
2023-04-18T02:16:08.658Z,22.64
2023-04-18T02:17:08.665Z,22.66
2023-04-18T02:18:08.701Z,22.64
2023-04-18T02:19:08.739Z,22.67
2023-04-18T02:20:08.748Z,22.67
2023-04-18T02:21:08.767Z,22.67
2023-04-18T02:22:08.802Z,22.66
2023-04-18T02:23:08.816Z,22.66
2023-04-18T02:24:08.856Z,22.67
2023-04-18T02:25:08.868Z,22.66
2023-04-18T02:26:08.911Z,22.69
2023-04-18T02:27:08.943Z,22.67
2023-04-18T02:28:08.956Z,22.64
2023-04-18T02:29:08.967Z,22.67
2023-04-18T02:30:08.980Z,22.67
2023-04-18T02:31:09.006Z,22.69
2023-04-18T02:32:09.148Z,22.67
2023-04-18T02:33:09.055Z,22.66
2023-04-18T02:34:09.058Z,22.66
2023-04-18T02:35:09.068Z,22.67
2023-04-18T02:36:09.102Z,22.69
2023-04-18T02:37:09.125Z,22.66
2023-04-18T02:38:09.133Z,22.64
2023-04-18T02:39:09.146Z,22.64
2023-04-18T02:40:09.180Z,22.64
2023-04-18T02:41:09.200Z,22.66
2023-04-18T02:42:09.209Z,22.66
2023-04-18T02:43:09.220Z,22.64
2023-04-18T02:44:09.238Z,22.66
2023-04-18T02:45:09.246Z,22.64
2023-04-18T02:46:09.265Z,22.67
2023-04-18T02:47:09.228Z,22.66
2023-04-18T02:48:09.288Z,22.66
2023-04-18T02:49:09.246Z,22.64
2023-04-18T02:50:09.259Z,22.67
2023-04-18T02:51:09.275Z,22.69
2023-04-18T02:52:09.285Z,22.67
2023-04-18T02:53:09.305Z,22.66
2023-04-18T02:54:09.316Z,22.66
2023-04-18T02:55:09.344Z,22.66
2023-04-18T02:56:09.352Z,22.64
2023-04-18T02:57:09.349Z,22.67
2023-04-18T02:58:09.348Z,22.66
2023-04-18T02:59:09.366Z,22.67
2023-04-18T03:00:09.380Z,22.64
2023-04-18T03:01:09.432Z,22.66
2023-04-18T03:02:09.465Z,22.67
2023-04-18T03:03:09.471Z,22.67
2023-04-18T03:04:09.428Z,22.64
2023-04-18T03:05:09.460Z,22.67
2023-04-18T03:06:09.455Z,22.67
2023-04-18T03:07:09.478Z,22.67
2023-04-18T03:08:09.498Z,22.69
2023-04-18T03:09:09.502Z,22.67
2023-04-18T03:10:09.550Z,22.67
2023-04-18T03:11:09.538Z,22.67
2023-04-18T03:12:09.545Z,22.66
2023-04-18T03:13:09.556Z,22.67
2023-04-18T03:14:09.572Z,22.70
2023-04-18T03:15:09.571Z,22.69
2023-04-18T03:16:09.610Z,22.67
2023-04-18T03:17:09.568Z,22.69
2023-04-18T03:18:09.588Z,22.69
2023-04-18T03:19:09.623Z,22.69
2023-04-18T03:20:09.651Z,22.69
2023-04-18T03:21:09.660Z,22.70
2023-04-18T03:22:09.681Z,22.70
2023-04-18T03:23:09.715Z,22.69
2023-04-18T03:24:11.956Z,22.71
2023-04-18T03:25:09.803Z,22.69
2023-04-18T03:26:09.848Z,22.67
2023-04-18T03:27:09.838Z,22.69
2023-04-18T03:28:09.855Z,22.69
2023-04-18T03:29:09.879Z,22.69
2023-04-18T03:30:09.915Z,22.69
2023-04-18T03:31:09.925Z,22.67
2023-04-18T03:32:09.925Z,22.70
2023-04-18T03:33:09.930Z,22.69
2023-04-18T03:34:09.959Z,22.69
2023-04-18T03:35:09.972Z,22.69
2023-04-18T03:36:09.960Z,22.69
2023-04-18T03:37:09.978Z,22.67
2023-04-18T03:38:09.996Z,22.69
2023-04-18T03:39:10.008Z,22.70
2023-04-18T03:40:10.019Z,22.70
2023-04-18T03:41:10.114Z,22.69
2023-04-18T03:42:10.033Z,22.69
2023-04-18T03:43:10.033Z,22.70
2023-04-18T03:44:10.052Z,22.69
2023-04-18T03:45:10.077Z,22.67
2023-04-18T03:46:10.126Z,22.69
2023-04-18T03:47:10.118Z,22.70
2023-04-18T03:48:10.118Z,22.71
2023-04-18T03:49:10.135Z,22.69
2023-04-18T03:50:10.140Z,22.69
2023-04-18T03:51:10.144Z,22.69
2023-04-18T03:52:10.160Z,22.69
2023-04-18T03:53:10.144Z,22.70
2023-04-18T03:54:10.177Z,22.69
2023-04-18T03:55:10.173Z,22.70
2023-04-18T03:56:10.186Z,22.70
2023-04-18T03:57:10.192Z,22.70
2023-04-18T03:58:10.184Z,22.70
2023-04-18T03:59:10.222Z,22.71
2023-04-18T04:00:10.227Z,22.71
2023-04-18T04:01:10.235Z,22.71
2023-04-18T04:02:10.302Z,22.69
2023-04-18T04:03:10.366Z,22.70
2023-04-18T04:04:10.305Z,22.69
2023-04-18T04:05:10.428Z,22.70
2023-04-18T04:06:10.311Z,22.71
2023-04-18T04:07:10.338Z,22.70
2023-04-18T04:08:10.354Z,22.74
2023-04-18T04:09:10.369Z,22.71
2023-04-18T04:10:10.403Z,22.70
2023-04-18T04:11:10.419Z,22.71
2023-04-18T04:12:10.421Z,22.73
2023-04-18T04:13:10.427Z,22.71
2023-04-18T04:14:10.448Z,22.70
2023-04-18T04:15:10.449Z,22.70
2023-04-18T04:16:10.466Z,22.70
2023-04-18T04:17:10.443Z,22.70
2023-04-18T04:18:10.627Z,22.71
2023-04-18T04:19:10.451Z,22.71
2023-04-18T04:20:10.438Z,22.70
2023-04-18T04:21:10.459Z,22.73
2023-04-18T04:22:10.449Z,22.71
2023-04-18T04:23:10.467Z,22.71
2023-04-18T04:24:10.474Z,22.73
2023-04-18T04:25:10.494Z,22.70
2023-04-18T04:26:10.517Z,22.71
2023-04-18T04:27:10.535Z,22.71
2023-04-18T04:28:10.546Z,22.71
2023-04-18T04:29:10.543Z,22.73
2023-04-18T04:30:13.153Z,22.71
2023-04-18T04:31:10.543Z,22.76
2023-04-18T04:32:10.483Z,22.71
2023-04-18T04:33:10.411Z,22.70
2023-04-18T04:34:10.376Z,22.73
2023-04-18T04:35:10.322Z,22.71
2023-04-18T04:36:10.268Z,22.73
2023-04-18T04:37:10.237Z,22.73
2023-04-18T04:38:10.181Z,22.73
2023-04-18T04:39:10.144Z,22.71
2023-04-18T04:40:10.111Z,22.71
2023-04-18T04:41:10.057Z,22.73
2023-04-18T04:42:10.016Z,22.71
2023-04-18T04:43:09.962Z,22.71
2023-04-18T04:44:09.935Z,22.71
2023-04-18T04:45:09.868Z,22.71
2023-04-18T04:46:09.873Z,22.71
2023-04-18T04:47:09.816Z,22.71
2023-04-18T04:48:09.759Z,22.71
2023-04-18T04:49:09.709Z,22.70
2023-04-18T04:50:09.657Z,22.71
2023-04-18T04:51:09.610Z,22.71
2023-04-18T04:52:09.563Z,22.71
2023-04-18T04:53:09.516Z,22.73
2023-04-18T04:54:09.476Z,22.71
2023-04-18T04:55:09.443Z,22.71
2023-04-18T04:56:09.397Z,22.70
2023-04-18T04:57:09.345Z,22.71
2023-04-18T04:58:09.291Z,22.73
2023-04-18T04:59:09.252Z,22.71
2023-04-18T05:00:09.206Z,22.74
2023-04-18T05:01:09.262Z,22.74
2023-04-18T05:02:09.216Z,22.71
2023-04-18T05:03:09.305Z,22.71
2023-04-18T05:04:09.164Z,22.71
2023-04-18T05:05:09.001Z,22.71
2023-04-18T05:06:08.948Z,22.69
2023-04-18T05:07:08.911Z,22.69
2023-04-18T05:08:08.889Z,22.69
2023-04-18T05:09:08.858Z,22.67
2023-04-18T05:10:08.823Z,22.66
2023-04-18T05:11:08.783Z,22.67
2023-04-18T05:12:08.801Z,22.67
2023-04-18T05:13:08.841Z,22.64
2023-04-18T05:14:08.853Z,22.66
2023-04-18T05:15:08.866Z,22.50
2023-04-18T05:16:08.835Z,22.50
2023-04-18T05:17:08.966Z,22.39
2023-04-18T05:18:08.810Z,22.43
2023-04-18T05:19:08.752Z,22.41
2023-04-18T05:20:08.718Z,22.45
2023-04-18T05:21:08.702Z,22.46
2023-04-18T05:22:08.670Z,22.49
2023-04-18T05:23:10.502Z,22.49
2023-04-18T05:24:08.642Z,22.45
2023-04-18T05:25:09.490Z,22.46
2023-04-18T05:26:08.568Z,22.38
2023-04-18T05:27:09.491Z,22.42
2023-04-18T05:28:08.582Z,22.46
2023-04-18T05:29:08.500Z,22.50
2023-04-18T05:30:08.475Z,22.46
2023-04-18T05:31:08.523Z,22.45
2023-04-18T05:32:08.420Z,22.53
2023-04-18T05:33:08.416Z,22.60
2023-04-18T05:34:08.337Z,22.62
2023-04-18T05:35:08.333Z,22.64
2023-04-18T05:36:08.265Z,22.67
2023-04-18T05:37:08.221Z,22.70
2023-04-18T05:38:08.185Z,22.73
2023-04-18T05:39:08.238Z,22.73
2023-04-18T05:40:08.140Z,22.71
2023-04-18T05:41:08.105Z,22.71
2023-04-18T05:42:08.055Z,22.70
2023-04-18T05:43:08.025Z,22.71
2023-04-18T05:44:07.996Z,22.70
2023-04-18T05:45:07.958Z,22.73
2023-04-18T05:46:07.944Z,22.70
2023-04-18T05:47:07.876Z,22.71
2023-04-18T05:48:07.934Z,22.71
2023-04-18T05:49:07.801Z,22.74
2023-04-18T05:50:07.761Z,22.71
2023-04-18T05:51:07.815Z,22.70
2023-04-18T05:52:07.764Z,22.73
2023-04-18T05:53:07.792Z,22.69
2023-04-18T05:54:07.830Z,22.70
2023-04-18T05:55:07.850Z,22.70
2023-04-18T05:56:07.876Z,22.70
2023-04-18T05:57:07.918Z,22.70
2023-04-18T05:58:07.936Z,22.70
2023-04-18T05:59:08.432Z,22.69
2023-04-18T06:00:07.896Z,22.70
2023-04-18T06:01:07.902Z,22.71
2023-04-18T06:02:07.966Z,22.71
2023-04-18T06:03:10.684Z,22.70
2023-04-18T06:04:07.982Z,22.70
2023-04-18T06:05:08.076Z,22.69
2023-04-18T06:06:07.772Z,22.67
2023-04-18T06:07:07.731Z,22.67
2023-04-18T06:08:07.694Z,22.66
2023-04-18T06:09:07.643Z,22.67
2023-04-18T06:10:07.624Z,22.67
2023-04-18T06:11:09.562Z,22.66
2023-04-18T06:12:07.529Z,22.64
2023-04-18T06:13:08.041Z,22.66
2023-04-18T06:14:07.438Z,22.66
2023-04-18T06:15:07.402Z,22.69
2023-04-18T06:16:07.409Z,22.64
2023-04-18T06:17:07.327Z,22.67
2023-04-18T06:18:07.400Z,22.66
2023-04-18T06:19:07.283Z,22.70
2023-04-18T06:20:07.252Z,22.69
2023-04-18T06:21:07.241Z,22.69
2023-04-18T06:22:07.191Z,22.60
2023-04-18T06:23:07.147Z,22.56
2023-04-18T06:24:07.098Z,22.58
2023-04-18T06:25:07.077Z,22.55
2023-04-18T06:26:09.049Z,22.56
2023-04-18T06:27:09.324Z,22.63
2023-04-18T06:28:07.969Z,22.64
2023-04-18T06:29:07.078Z,22.64
2023-04-18T06:30:06.891Z,22.62
2023-04-18T06:31:07.528Z,22.62
2023-04-18T06:32:06.843Z,22.58
2023-04-18T06:33:06.822Z,22.59
2023-04-18T06:34:06.786Z,22.59
2023-04-18T06:35:10.038Z,22.59
2023-04-18T06:36:06.711Z,22.58
2023-04-18T06:37:06.704Z,22.59
2023-04-18T06:38:07.030Z,22.58
2023-04-18T06:39:06.610Z,22.59
2023-04-18T06:40:06.562Z,22.59
2023-04-18T06:41:06.542Z,22.62
2023-04-18T06:42:06.476Z,22.60
2023-04-18T06:43:09.574Z,22.60
2023-04-18T06:44:06.380Z,22.62
2023-04-18T06:45:07.038Z,22.63
2023-04-18T06:46:06.377Z,22.62
2023-04-18T06:47:06.264Z,22.63
2023-04-18T06:48:06.305Z,22.62
2023-04-18T06:49:08.060Z,22.60
2023-04-18T06:50:06.169Z,22.64
2023-04-18T06:51:06.099Z,22.64
2023-04-18T06:52:06.059Z,22.66
2023-04-18T06:53:06.022Z,22.64
2023-04-18T06:54:07.560Z,22.66
2023-04-18T06:55:05.943Z,22.67
2023-04-18T06:56:05.902Z,22.66
2023-04-18T06:57:05.899Z,22.66
2023-04-18T06:58:05.860Z,22.70
2023-04-18T06:59:05.898Z,22.70
2023-04-18T07:00:05.917Z,22.71
2023-04-18T07:01:06.921Z,22.71
2023-04-18T07:02:05.839Z,22.71
2023-04-18T07:03:07.079Z,22.70
2023-04-18T07:04:05.882Z,22.73
2023-04-18T07:05:05.707Z,22.74
2023-04-18T07:06:06.550Z,22.71
2023-04-18T07:07:05.751Z,22.74
2023-04-18T07:08:05.754Z,22.74
2023-04-18T07:09:05.707Z,22.73
2023-04-18T07:10:07.506Z,22.74
2023-04-18T07:11:05.628Z,22.76
2023-04-18T07:12:05.593Z,22.76
2023-04-18T07:13:05.564Z,22.76
2023-04-18T07:14:05.528Z,22.69
2023-04-18T07:15:05.644Z,22.74
2023-04-18T07:16:05.441Z,22.70
2023-04-18T07:17:05.585Z,22.60
2023-04-18T07:18:05.473Z,22.53
2023-04-18T07:19:05.409Z,22.59
2023-04-18T07:20:05.374Z,22.58
2023-04-18T07:21:05.360Z,22.58
2023-04-18T07:22:06.044Z,22.63
2023-04-18T07:23:05.973Z,22.67
2023-04-18T07:24:05.255Z,22.71
2023-04-18T07:25:05.971Z,22.71
2023-04-18T07:26:05.178Z,22.76
2023-04-18T07:27:05.138Z,22.80
2023-04-18T07:28:05.096Z,22.83
2023-04-18T07:29:05.053Z,22.86
2023-04-18T07:30:05.551Z,22.91
2023-04-18T07:31:05.006Z,22.93
2023-04-18T07:32:06.869Z,22.96
2023-04-18T07:33:04.968Z,22.94
2023-04-18T07:34:04.895Z,22.94
2023-04-18T07:35:04.850Z,22.94
2023-04-18T07:36:04.856Z,22.97
2023-04-18T07:37:04.828Z,22.94
2023-04-18T07:38:04.728Z,22.94
2023-04-18T07:39:04.698Z,22.94
2023-04-18T07:40:04.654Z,22.90
2023-04-18T07:41:04.627Z,22.91
2023-04-18T07:42:04.600Z,22.91
2023-04-18T07:43:04.555Z,22.90
2023-04-18T07:44:04.508Z,22.89
2023-04-18T07:45:04.480Z,22.90
2023-04-18T07:46:04.467Z,22.85
2023-04-18T07:47:04.447Z,22.87
2023-04-18T07:48:04.413Z,22.90
2023-04-18T07:49:04.332Z,22.87
2023-04-18T07:50:05.065Z,22.89
2023-04-18T07:51:04.257Z,22.89
2023-04-18T07:52:04.231Z,22.89
2023-04-18T07:53:04.182Z,22.86
2023-04-18T07:54:04.152Z,22.85
2023-04-18T07:55:04.108Z,22.86
2023-04-18T07:56:05.068Z,22.85
2023-04-18T07:57:05.598Z,22.85
2023-04-18T07:58:03.986Z,22.85
2023-04-18T07:59:03.950Z,22.85
2023-04-18T08:00:04.494Z,22.86
2023-04-18T08:01:03.883Z,22.86
2023-04-18T08:02:03.859Z,22.85
2023-04-18T08:04:03.928Z,22.86
2023-04-18T08:05:03.806Z,22.85
2023-04-18T08:06:03.697Z,22.86
2023-04-18T08:07:03.653Z,22.86
2023-04-18T08:08:03.614Z,22.87
2023-04-18T08:09:03.572Z,22.87
2023-04-18T08:10:03.553Z,22.87
2023-04-18T08:11:05.092Z,22.85
2023-04-18T08:12:03.460Z,22.83
2023-04-18T08:13:03.449Z,22.83
2023-04-18T08:14:03.396Z,22.79
2023-04-18T08:15:03.372Z,22.74
2023-04-18T08:16:03.364Z,22.79
2023-04-18T08:17:04.077Z,22.79
2023-04-18T08:18:03.623Z,22.77
2023-04-18T08:19:03.334Z,22.77
2023-04-18T08:20:03.195Z,22.79
2023-04-18T08:21:03.165Z,22.82
2023-04-18T08:22:03.141Z,22.83
2023-04-18T08:23:07.958Z,22.82
2023-04-18T08:24:04.078Z,22.83
2023-04-18T08:25:05.560Z,22.86
2023-04-18T08:26:02.955Z,22.82
2023-04-18T08:27:02.913Z,22.90
2023-04-18T08:28:02.884Z,22.91
2023-04-18T08:29:02.837Z,22.96
2023-04-18T08:30:02.781Z,23.00
2023-04-18T08:31:02.722Z,23.00
2023-04-18T08:32:05.697Z,23.03
2023-04-18T08:33:02.750Z,23.01
2023-04-18T08:34:04.523Z,23.04
2023-04-18T08:35:02.688Z,23.04
2023-04-18T08:36:02.692Z,23.04
2023-04-18T08:37:02.720Z,23.05
2023-04-18T08:38:02.723Z,23.04
2023-04-18T08:39:02.723Z,23.01
2023-04-18T08:40:02.764Z,23.05
2023-04-18T08:41:02.738Z,23.03
2023-04-18T08:42:02.765Z,23.01
2023-04-18T08:43:02.781Z,22.97
2023-04-18T08:44:02.815Z,23.00
2023-04-18T08:45:02.869Z,22.98
2023-04-18T08:46:02.921Z,22.98
2023-04-18T08:47:02.889Z,22.98
2023-04-18T08:48:03.010Z,22.98
2023-04-18T08:49:02.925Z,22.97
2023-04-18T08:50:02.893Z,22.96
2023-04-18T08:51:02.999Z,22.96
2023-04-18T08:52:02.809Z,22.94
2023-04-18T08:53:02.767Z,22.96
2023-04-18T08:54:02.723Z,22.97
2023-04-18T08:55:02.712Z,22.94
2023-04-18T08:56:02.664Z,22.94
2023-04-18T08:57:02.611Z,22.96
2023-04-18T08:58:02.603Z,22.94
2023-04-18T08:59:02.626Z,22.94
2023-04-18T09:00:02.628Z,22.96
2023-04-18T09:01:02.651Z,22.96
2023-04-18T09:02:02.629Z,22.94
2023-04-18T09:03:02.733Z,22.93
2023-04-18T09:04:02.512Z,22.91
2023-04-18T09:05:02.408Z,22.93
2023-04-18T09:06:02.612Z,22.94
2023-04-18T09:07:02.346Z,22.93
2023-04-18T09:08:02.290Z,22.91
2023-04-18T09:09:02.274Z,22.94
2023-04-18T09:10:02.276Z,22.94
2023-04-18T09:11:02.169Z,22.93
2023-04-18T09:12:02.188Z,22.93
2023-04-18T09:13:02.236Z,22.93
2023-04-18T09:14:02.264Z,22.93
2023-04-18T09:15:06.119Z,22.94
2023-04-18T09:16:02.256Z,22.89
2023-04-18T09:17:02.268Z,22.86
2023-04-18T09:18:02.227Z,22.86
2023-04-18T09:19:02.151Z,22.83
2023-04-18T09:20:02.175Z,22.85
2023-04-18T09:21:02.141Z,22.89
2023-04-18T09:22:02.053Z,22.86
2023-04-18T09:23:02.007Z,22.96
2023-04-18T09:24:01.974Z,23.01
2023-04-18T09:25:01.947Z,23.05
2023-04-18T09:26:01.892Z,23.10
2023-04-18T09:27:02.846Z,23.11
2023-04-18T09:28:01.826Z,23.13
2023-04-18T09:29:01.747Z,23.15
2023-04-18T09:30:01.755Z,23.14
2023-04-18T09:31:01.831Z,23.15
2023-04-18T09:32:01.715Z,23.14
2023-04-18T09:33:01.698Z,23.14
2023-04-18T09:34:01.498Z,23.13
2023-04-18T09:35:03.404Z,23.14
2023-04-18T09:36:01.441Z,23.15
2023-04-18T09:37:01.385Z,23.14
2023-04-18T09:38:01.312Z,23.11
2023-04-18T09:39:02.040Z,23.07
2023-04-18T09:40:01.235Z,23.05
2023-04-18T09:41:01.201Z,23.01
2023-04-18T09:42:01.181Z,22.98
2023-04-18T09:43:01.164Z,22.96
2023-04-18T09:44:01.120Z,22.90
2023-04-18T09:45:01.193Z,22.85
2023-04-18T09:46:01.162Z,22.83
2023-04-18T09:47:01.101Z,22.82
2023-04-18T09:48:01.122Z,22.77
2023-04-18T09:49:01.073Z,22.74
2023-04-18T09:50:01.058Z,22.73
2023-04-18T09:51:01.051Z,22.71
2023-04-18T09:52:01.033Z,22.70
2023-04-18T09:53:01.002Z,22.71
2023-04-18T09:54:00.969Z,22.70
2023-04-18T09:55:00.949Z,22.70
2023-04-18T09:56:00.911Z,22.71
2023-04-18T09:57:00.891Z,22.73
2023-04-18T09:58:00.812Z,22.71
2023-04-18T09:59:00.773Z,22.74
2023-04-18T10:00:01.150Z,22.79
2023-04-18T10:01:00.690Z,22.69
2023-04-18T10:02:00.716Z,22.70
2023-04-18T10:03:00.710Z,22.74
2023-04-18T10:04:00.697Z,22.74
2023-04-18T10:05:00.648Z,22.74
2023-04-18T10:06:00.507Z,22.76
2023-04-18T10:07:00.466Z,22.77
2023-04-18T10:08:00.419Z,22.80
2023-04-18T10:09:00.387Z,22.82
2023-04-18T10:10:00.350Z,22.82
2023-04-18T10:11:00.401Z,22.70
2023-04-18T10:12:00.262Z,22.52
2023-04-18T10:13:00.266Z,22.59
2023-04-18T10:14:00.190Z,22.58
2023-04-18T10:15:00.168Z,22.64
2023-04-18T10:16:01.094Z,22.66
2023-04-18T10:17:00.132Z,22.76
2023-04-18T10:18:05.395Z,22.82
2023-04-18T10:19:01.011Z,22.85
2023-04-18T10:19:59.977Z,22.89
2023-04-18T10:21:00.628Z,22.93
2023-04-18T10:21:59.873Z,22.94
2023-04-18T10:23:01.596Z,22.97
2023-04-18T10:23:59.766Z,22.98
2023-04-18T10:24:59.712Z,23.00
2023-04-18T10:25:59.681Z,23.01
2023-04-18T10:26:59.676Z,23.01
2023-04-18T10:27:59.678Z,23.01
2023-04-18T10:28:59.685Z,23.00
2023-04-18T10:29:59.689Z,23.03
2023-04-18T10:30:59.728Z,23.01
2023-04-18T10:31:59.845Z,23.03
2023-04-18T10:32:59.790Z,23.01
2023-04-18T10:34:05.320Z,23.03
2023-04-18T10:35:00.733Z,23.03
2023-04-18T10:35:59.662Z,23.03
2023-04-18T10:36:59.630Z,23.03
2023-04-18T10:37:59.624Z,23.03
2023-04-18T10:38:59.537Z,23.05
2023-04-18T10:39:59.505Z,23.05
2023-04-18T10:40:59.448Z,23.04
2023-04-18T10:41:59.410Z,23.04
2023-04-18T10:42:59.402Z,23.05
2023-04-18T10:43:59.411Z,23.05
2023-04-18T10:44:59.431Z,23.05
2023-04-18T10:45:59.526Z,23.05
2023-04-18T10:46:59.474Z,23.08
2023-04-18T10:48:00.139Z,23.08
2023-04-18T10:48:59.505Z,23.07
2023-04-18T10:49:59.522Z,23.13
2023-04-18T10:50:59.544Z,23.07
2023-04-18T10:51:59.577Z,23.08
2023-04-18T10:52:59.594Z,23.08
2023-04-18T10:53:59.584Z,23.07
2023-04-18T10:54:59.570Z,23.04
2023-04-18T10:55:59.594Z,23.07
2023-04-18T10:56:59.625Z,23.05
2023-04-18T10:57:59.624Z,23.05
2023-04-18T10:58:59.636Z,23.04
2023-04-18T10:59:59.642Z,23.04
2023-04-18T11:00:59.685Z,23.07
2023-04-18T11:01:59.696Z,23.04
2023-04-18T11:02:59.798Z,22.90
2023-04-18T11:03:59.802Z,22.89
2023-04-18T11:04:59.666Z,22.89
2023-04-18T11:05:59.670Z,22.96
2023-04-18T11:06:59.673Z,23.00
2023-04-18T11:07:59.620Z,22.98
2023-04-18T11:08:59.618Z,23.01
2023-04-18T11:09:59.579Z,23.04
2023-04-18T11:10:59.582Z,23.03
2023-04-18T11:11:59.577Z,23.05
2023-04-18T11:12:59.605Z,23.07
2023-04-18T11:13:59.629Z,23.11
2023-04-18T11:14:59.639Z,23.08
2023-04-18T11:15:59.674Z,23.10
2023-04-18T11:16:59.740Z,23.11
2023-04-18T11:17:59.742Z,23.11
2023-04-18T11:18:59.705Z,23.14
2023-04-18T11:19:59.713Z,23.11
2023-04-18T11:20:59.725Z,23.08
2023-04-18T11:21:59.802Z,23.07
2023-04-18T11:22:59.757Z,23.07
2023-04-18T11:23:59.745Z,23.00
2023-04-18T11:24:59.742Z,23.00
2023-04-18T11:25:59.781Z,23.01
2023-04-18T11:26:59.793Z,22.98
2023-04-18T11:27:59.847Z,23.00
2023-04-18T11:28:59.822Z,23.00
2023-04-18T11:29:59.831Z,23.01
2023-04-18T11:30:59.905Z,23.04
2023-04-18T11:31:59.867Z,23.04
2023-04-18T11:32:59.951Z,23.04
2023-04-18T11:33:59.882Z,23.05
2023-04-18T11:35:00.678Z,22.94
2023-04-18T11:35:59.969Z,22.94
2023-04-18T11:36:59.967Z,23.00
2023-04-18T11:37:59.959Z,23.00
2023-04-18T11:39:00.000Z,23.00
2023-04-18T11:40:00.001Z,23.00
2023-04-18T11:41:00.001Z,23.03
2023-04-18T11:42:00.023Z,23.04
2023-04-18T11:43:00.036Z,23.04
2023-04-18T11:44:00.038Z,23.05
2023-04-18T11:45:00.069Z,23.04
2023-04-18T11:46:00.133Z,22.91
2023-04-18T11:47:00.170Z,22.89
2023-04-18T11:48:00.100Z,22.85
2023-04-18T11:49:00.042Z,22.86
2023-04-18T11:50:00.056Z,22.86
2023-04-18T11:51:00.037Z,22.89
2023-04-18T11:52:00.059Z,22.93
2023-04-18T11:53:00.023Z,22.94
2023-04-18T11:54:00.055Z,23.00
2023-04-18T11:55:00.066Z,23.01
2023-04-18T11:56:00.113Z,23.04
2023-04-18T11:57:00.112Z,23.03
2023-04-18T11:58:01.106Z,22.98
2023-04-18T11:59:00.093Z,23.01
2023-04-18T12:00:00.165Z,23.04
2023-04-18T12:01:00.158Z,23.07
2023-04-18T12:02:14.410Z,23.07
2023-04-18T12:03:01.178Z,23.11
2023-04-18T12:04:00.209Z,23.13
2023-04-18T12:05:00.255Z,23.15
2023-04-18T12:06:00.016Z,23.11
2023-04-18T12:06:59.865Z,23.14
2023-04-18T12:07:59.817Z,23.15
2023-04-18T12:09:00.629Z,23.15
2023-04-18T12:09:59.706Z,23.17
2023-04-18T12:10:59.672Z,23.19
2023-04-18T12:11:59.692Z,23.14
2023-04-18T12:12:59.690Z,23.17
2023-04-18T12:13:59.713Z,23.17
2023-04-18T12:14:59.793Z,23.17
2023-04-18T12:15:59.785Z,23.15
2023-04-18T12:16:59.735Z,23.15
2023-04-18T12:17:59.782Z,23.15
2023-04-18T12:18:59.735Z,23.17
2023-04-18T12:20:00.692Z,23.15
2023-04-18T12:20:59.738Z,23.14
2023-04-18T12:21:59.757Z,23.14
2023-04-18T12:22:59.764Z,23.14
2023-04-18T12:23:59.763Z,23.15
2023-04-18T12:24:59.764Z,23.14
2023-04-18T12:25:59.790Z,23.14
2023-04-18T12:27:00.687Z,23.13
2023-04-18T12:27:59.801Z,23.14
2023-04-18T12:29:00.738Z,23.13
2023-04-18T12:29:59.677Z,23.11
2023-04-18T12:30:59.677Z,23.14
2023-04-18T12:31:59.652Z,23.15
2023-04-18T12:32:59.941Z,23.15
2023-04-18T12:33:59.447Z,23.14
2023-04-18T12:34:59.406Z,23.14
2023-04-18T12:35:59.342Z,23.14
2023-04-18T12:36:59.293Z,23.14
2023-04-18T12:37:59.326Z,23.13
2023-04-18T12:38:59.296Z,23.11
2023-04-18T12:39:59.300Z,23.11
2023-04-18T12:40:59.313Z,23.15
2023-04-18T12:41:59.309Z,23.17
2023-04-18T12:43:00.129Z,23.15
2023-04-18T12:43:59.311Z,23.14
2023-04-18T12:44:59.309Z,23.17
2023-04-18T12:45:59.323Z,23.14
2023-04-18T12:46:59.368Z,23.17
2023-04-18T12:47:59.360Z,23.15
2023-04-18T12:48:59.334Z,23.17
2023-04-18T12:49:59.332Z,23.15
2023-04-18T12:50:59.350Z,23.17
2023-04-18T12:51:59.345Z,23.15
2023-04-18T12:52:59.352Z,23.10